Weather at London Luton Airport

Public forecast

Using degrees Celsius for public forecast. Weather courtesy of forecast.io.

Current aviation weather report (METAR) for London Luton Airport

Retrieved 2020/09/23 09:20 UTC (0 seconds ago):

EGGW 230920Z AUTO 21009KT 160V230 9999 SCT011 16/14 Q1001

Aviation forecast (TAF) for London Luton Airport

Retrieved 2020/09/23 06:00 UTC (3 hours ago):

TAF EGGW 230459Z 2306/2406 22010KT 9999 SCT020 TEMPO 2306/2322 6000 SHRA BKN009 PROB30 2306/2307 4000 BR BKN004 PROB30 TEMPO 2314/2320 3000 +SHRA BECMG 2315/2318 28008KT BECMG 2403/2406 15010KT